Accueil
METAR-TAF:

METAR-TAF

Aéroports :

Aéroport international de Norwich

Norwich, Angleterre

latitude: 52-38N, longitude: 001-18E, altitude: 14 m

Observation

Le bulletin a été fait il y a 15 minutes, à 02:20 UTC
Vent 2 kt de sud-ouest
Température 5°C
Humidité 87%
Pression 1031 hPa
Visibilité 10 km ou plus

METAR: EGSH 240220Z AUTO 23002KT 9999 NCD 05/03 Q1031

Heure: 02:35 (02:35 UTC)

Prévision

Le bulletin a été fait il y a 36 minutes, à 01:59 UTC
Prévision valable du 24 à 03 UTC au 24 à 12 UTC
Vent 3 kt de direction variable
Visibilité 10 km ou plus
Quelques nuages à une hauteur de 4500 ft
Evoluant progressivement
du 24 à 09 UTC au 24 à 12 UTC
Vent 10 kt de ouest/nord-ouest

TAF: EGSH 240159Z 2403/2412 VRB03KT 9999 FEW045 BECMG 2409/2412 29010KT

Observations et prévisions météorologiques de plus de 4000 aéroports (messages METAR et TAF).

Les stations disponibles sont représentées par des disques jaunes et rouges sur la carte.

Passer la souris dessus pour voir le nom de la station.

Cliquer dessus pour voir les observations et prévisions météorologiques.

Pour changer de carte: cliquez sur les boutons verts avec une croix noire pour zoomer, sur le bouton vert avec un tiret pour effectuer un zoom arrière, ou sur les flèches vertes pour les cartes adjacentes.


METAR-TAF: